Time;durP1;ratioP1;P1;durP2;ratioP2;P2;SDS_P1;SDS_P2;PMS_P1;PMS_P2;Temp;Humidity;BMP_temperature;BMP_pressure;BME280_temperature;BME280_humidity;BME280_pressure;Samples;Min_cycle;Max_cycle;Signal;HPM_P1;HPM_P2
2021/10/10 00:01:44;;;;;;;26.80;11.77;;;7.00;1.00;;;;;;5037772;28;20388;-77
2021/10/10 00:04:18;;;;;;;22.00;11.63;;;;;;;;;;5056245;28;20410;-77
2021/10/10 00:06:46;;;;;;;19.57;10.43;;;;;;;;;;5055800;28;20700;-77
2021/10/10 00:09:12;;;;;;;22.77;9.73;;;;;;;;;;5054153;28;20464;-75
2021/10/10 00:11:42;;;;;;;19.27;10.50;;;;;;;;;;5036078;28;20955;-75
2021/10/10 00:14:08;;;;;;;16.67;10.37;;;;;;;;;;5035894;28;20411;-75
2021/10/10 00:16:48;;;;;;;20.30;11.63;;;;;;;;;;5035806;28;20901;-76
2021/10/10 00:19:14;;;;;;;22.23;11.47;;;;;;;;;;5034739;28;20419;-75
2021/10/10 00:21:40;;;;;;;19.90;10.47;;;;;;;;;;5040565;28;20481;-75
2021/10/10 00:24:18;;;;;;;19.57;11.23;;;;;;;;;;5053210;28;20917;-77
2021/10/10 00:26:54;;;;;;;19.20;11.40;;;;;;;;;;5034234;28;20413;-77
2021/10/10 00:29:20;;;;;;;19.40;11.77;;;;;;;;;;5035616;28;20417;-77
2021/10/10 00:31:47;;;;;;;19.80;10.60;;;;;;;;;;5039709;28;20460;-77
2021/10/10 00:34:19;;;;;;;20.57;11.40;;;;;;;;;;5055524;28;20737;-77
2021/10/10 00:36:46;;;;;;;15.80;10.17;;;;;;;;;;5054970;28;20402;-77
2021/10/10 00:39:24;;;;;;;20.60;10.40;;;;;;;;;;5042131;28;20877;-77
2021/10/10 00:41:54;;;;;;;25.43;11.27;;;;;;;;;;5054287;28;20414;-77
2021/10/10 00:44:25;;;;;;;18.90;10.90;;;;;;;;;;5055301;28;20452;-77
2021/10/10 00:46:54;;;;;;;29.50;11.97;;;;;;;;;;5055222;28;20893;-77
2021/10/10 00:49:24;;;;;;;18.57;10.70;;;;;;;;;;5054498;28;20532;-77
2021/10/10 00:51:53;;;;;;;23.37;11.43;;;6.40;1.00;;;;;;5045994;28;20419;-77
2021/10/10 00:54:21;;;;;;;21.03;11.73;;;6.30;1.00;;;;;;5035567;28;20444;-77
2021/10/10 00:56:48;;;;;;;23.53;12.13;;;;;;;;;;5034964;28;20402;-78
2021/10/10 00:59:24;;;;;;;29.30;12.13;;;6.30;1.00;;;;;;5033831;28;20457;-77
2021/10/10 01:01:50;;;;;;;22.60;11.57;;;;;;;;;;5035223;28;20422;-77
2021/10/10 01:04:17;;;;;;;23.87;10.97;;;;;;;;;;5034759;28;20384;-77
2021/10/10 01:06:45;;;;;;;21.33;12.23;;;;;;;;;;5036354;28;20426;-77
2021/10/10 01:09:13;;;;;;;20.20;10.90;;;6.20;1.00;;;;;;5049083;28;20404;-77
2021/10/10 01:11:48;;;;;;;22.70;11.17;;;;;;;;;;5040303;28;20458;-77
2021/10/10 01:14:16;;;;;;;24.40;12.03;;;6.10;1.00;;;;;;5054704;28;20378;-77
2021/10/10 01:16:42;;;;;;;27.63;12.13;;;;;;;;;;5054182;28;20410;-77
2021/10/10 01:19:14;;;;;;;25.83;13.50;;;;;;;;;;5048909;28;20395;-77
2021/10/10 01:21:48;;;;;;;17.80;10.87;;;;;;;;;;5040390;28;20422;-77
2021/10/10 01:24:14;;;;;;;24.43;12.27;;;;;;;;;;5053852;28;20378;-76
2021/10/10 01:26:41;;;;;;;29.27;12.30;;;;;;;;;;5037326;28;20458;-76
2021/10/10 01:29:12;;;;;;;28.63;12.70;;;;;;;;;;5034167;28;20406;-75
2021/10/10 01:31:38;;;;;;;32.60;13.17;;;;;;;;;;5039695;28;20513;-75
2021/10/10 01:34:06;;;;;;;28.00;13.07;;;;;;;;;;5053397;28;20418;-75
2021/10/10 01:36:37;;;;;;;23.40;13.83;;;;;;;;;;5053275;28;20442;-75
2021/10/10 01:39:04;;;;;;;24.07;13.43;;;5.90;1.00;;;;;;5053770;28;20387;-75
2021/10/10 01:41:32;;;;;;;23.97;12.13;;;;;;;;;;5034165;28;20736;-76
2021/10/10 01:43:58;;;;;;;29.30;13.70;;;;;;;;;;5032660;28;20430;-75
2021/10/10 01:46:25;;;;;;;23.10;13.07;;;;;;;;;;5034011;28;20387;-75
2021/10/10 01:48:54;;;;;;;26.07;11.93;;;;;;;;;;5044031;28;20743;-75
2021/10/10 01:51:22;;;;;;;25.70;12.97;;;;;;;;;;5050588;28;20518;-75
2021/10/10 01:54:00;;;;;;;24.33;12.13;;;;;;;;;;5034431;28;20398;-75
2021/10/10 01:56:27;;;;;;;20.13;11.90;;;5.70;1.00;;;;;;5033990;28;20544;-75
2021/10/10 01:58:53;;;;;;;24.50;12.30;;;;;;;;;;5033889;28;20422;-75
2021/10/10 02:01:20;;;;;;;25.63;13.57;;;;;;;;;;5034429;28;20504;-75
2021/10/10 02:03:54;;;;;;;24.50;12.87;;;;;;;;;;5033694;28;20858;-75
2021/10/10 02:06:20;;;;;;;23.23;11.80;;;;;;;;;;5041311;28;20904;-75
2021/10/10 02:08:48;;;;;;;29.40;13.50;;;;;;;;;;5054011;28;20379;-75
2021/10/10 02:11:14;;;;;;;25.50;12.47;;;;;;;;;;5052180;28;20537;-75
2021/10/10 02:13:42;;;;;;;30.00;13.43;;;;;;;;;;5053744;28;20429;-75
2021/10/10 02:16:08;;;;;;;23.13;12.80;;;;;;;;;;5053848;28;20904;-75
2021/10/10 02:18:36;;;;;;;22.03;12.73;;;;;;;;;;5046323;28;20399;-75
2021/10/10 02:21:03;;;;;;;24.70;12.20;;;;;;;;;;5033337;28;20510;-75
2021/10/10 02:23:30;;;;;;;24.57;13.40;;;;;;;;;;5051345;28;20423;-76
2021/10/10 02:25:56;;;;;;;25.13;12.73;;;;;;;;;;5053721;28;20402;-77
2021/10/10 02:28:24;;;;;;;25.17;12.63;;;;;;;;;;5070757;28;20896;-77
2021/10/10 02:31:00;;;;;;;27.60;12.73;;;;;;;;;;5061188;28;20936;-77
2021/10/10 02:33:30;;;;;;;22.15;12.32;;;;;;;;;;5053879;28;20416;-77
2021/10/10 02:36:06;;;;;;;31.00;14.53;;;;;;;;;;5053494;28;20658;-77
2021/10/10 02:38:36;;;;;;;23.90;13.60;;;;;;;;;;5053840;28;20421;-75
2021/10/10 02:41:02;;;;;;;21.40;11.60;;;;;;;;;;5052538;28;20391;-75
2021/10/10 02:43:42;;;;;;;28.17;13.53;;;;;;;;;;5051561;28;20649;-76
2021/10/10 02:46:08;;;;;;;23.40;13.27;;;;;;;;;;5033413;28;20433;-75
2021/10/10 02:48:42;;;;;;;26.53;13.37;;;;;;;;;;5034078;28;20950;-75
2021/10/10 02:51:09;;;;;;;23.70;12.97;;;;;;;;;;5049394;28;20467;-75
2021/10/10 02:53:34;;;;;;;26.27;13.73;;;5.30;1.00;;;;;;5053201;28;20964;-75
2021/10/10 02:56:01;;;;;;;23.03;12.80;;;5.30;1.00;;;;;;5052783;28;20502;-77
2021/10/10 02:58:30;;;;;;;27.67;11.90;;;5.30;1.00;;;;;;5062572;28;20421;-77
2021/10/10 03:01:13;;;;;;;23.63;12.70;;;5.30;1.00;;;;;;5061878;28;20492;-77
2021/10/10 03:04:11;;;;;;;27.20;13.93;;;5.30;1.00;;;;;;5051270;28;20480;-77
2021/10/10 03:06:59;;;;;;;39.90;13.60;;;5.10;1.00;;;;;;5056315;28;20911;-77
2021/10/10 03:09:34;;;;;;;28.77;12.13;;;5.20;1.00;;;;;;5056343;28;20911;-75
2021/10/10 03:12:01;;;;;;;27.37;13.77;;;;;;;;;;5055516;28;20448;-75
2021/10/10 03:14:28;;;;;;;29.85;13.80;;;;;;;;;;5056968;28;20416;-75
2021/10/10 03:16:54;;;;;;;28.20;14.10;;;;;;;;;;5058013;28;20492;-75
2021/10/10 03:19:24;;;;;;;29.70;13.10;;;;;;;;;;5052224;28;20865;-75
2021/10/10 03:22:00;;;;;;;25.80;14.70;;;;;;;;;;5058875;28;20491;-75
2021/10/10 03:24:29;;;;;;;28.87;14.20;;;;;;;;;;5055411;28;20409;-77
2021/10/10 03:27:25;;;;;;;27.37;14.30;;;5.20;1.00;;;;;;5054614;28;20489;-76
2021/10/10 03:29:54;;;;;;;25.73;12.47;;;;;;;;;;5048130;28;20469;-76
2021/10/10 03:32:47;;;;;;;27.00;13.67;;;;;;;;;;5047698;28;20414;-77
2021/10/10 03:35:13;;;;;;;27.60;13.30;;;;;;;;;;5051176;28;20430;-77
2021/10/10 03:37:48;;;;;;;24.30;13.23;;;;;;;;;;5049833;28;20402;-77
2021/10/10 03:40:35;;;;;;;30.97;14.20;;;5.10;1.00;;;;;;5060904;28;20520;-77
2021/10/10 03:43:02;;;;;;;24.17;12.50;;;;;;;;;;5046320;28;20759;-77
2021/10/10 03:45:36;;;;;;;27.73;13.50;;;;;;;;;;5053854;28;20410;-78
2021/10/10 03:48:06;;;;;;;32.45;12.40;;;;;;;;;;5038749;28;20510;-77
2021/10/10 03:50:42;;;;;;;25.07;12.27;;;;;;;;;;5055709;28;20322;-77
2021/10/10 03:53:12;;;;;;;24.73;13.07;;;;;;;;;;5060761;28;20428;-77
2021/10/10 03:55:39;;;;;;;31.23;14.50;;;;;;;;;;5050689;28;20453;-77
2021/10/10 03:58:06;;;;;;;27.98;14.05;;;;;;;;;;5054553;28;20472;-77
2021/10/10 04:00:34;;;;;;;22.07;12.70;;;;;;;;;;5054785;28;20180;-77
2021/10/10 04:03:23;;;;;;;26.25;15.02;;;;;;;;;;5054711;28;20429;-77
2021/10/10 04:06:02;;;;;;;27.80;14.20;;;;;;;;;;5050727;28;20654;-77
2021/10/10 04:08:29;;;;;;;27.93;14.33;;;;;;;;;;5049490;28;20498;-77
2021/10/10 04:11:00;;;;;;;27.67;14.30;;;;;;;;;;5042054;28;20453;-77
2021/10/10 04:13:30;;;;;;;33.13;13.60;;;;;;;;;;5045741;28;20769;-76
2021/10/10 04:16:06;;;;;;;27.10;13.30;;;;;;;;;;5054551;28;20635;-77
2021/10/10 04:18:48;;;;;;;26.73;13.80;;;;;;;;;;5046974;28;20766;-77
2021/10/10 04:21:18;;;;;;;25.37;13.57;;;;;;;;;;5054349;28;20180;-77
2021/10/10 04:23:44;;;;;;;24.20;12.25;;;;;;;;;;5053384;28;20484;-76
2021/10/10 04:26:11;;;;;;;32.70;15.23;;;;;;;;;;5058834;28;20168;-75
2021/10/10 04:28:51;;;;;;;28.17;13.95;;;4.90;1.00;;;;;;5058090;28;20179;-75
2021/10/10 04:31:24;;;;;;;25.90;12.55;;;;;;;;;;5057463;28;20231;-76
2021/10/10 04:33:52;;;;;;;33.90;15.30;;;;;;;;;;5048980;28;20226;-75
2021/10/10 04:36:21;;;;;;;24.70;14.50;;;;;;;;;;5053581;28;20438;-80
2021/10/10 04:38:49;;;;;;;26.92;14.15;;;;;;;;;;5046250;28;20175;-75
2021/10/10 04:41:15;;;;;;;33.53;14.55;;;;;;;;;;5048245;28;20183;-77
2021/10/10 04:43:42;;;;;;;27.60;14.65;;;;;;;;;;5050881;28;20164;-76
2021/10/10 04:46:08;;;;;;;28.13;14.02;;;;;;;;;;5049688;28;20271;-77
2021/10/10 04:48:34;;;;;;;28.98;15.02;;;;;;;;;;5047088;28;20223;-77
2021/10/10 04:51:02;;;;;;;27.63;14.18;;;4.80;1.00;;;;;;5049032;28;20191;-79
2021/10/10 04:53:29;;;;;;;26.10;13.98;;;;;;;;;;5051193;28;20179;-77
2021/10/10 04:55:55;;;;;;;30.17;14.63;;;;;;;;;;5050293;28;20180;-75
2021/10/10 04:58:21;;;;;;;34.15;13.70;;;;;;;;;;5057682;28;20681;-77
2021/10/10 05:00:54;;;;;;;27.85;15.43;;;;;;;;;;5036298;28;20541;-75
2021/10/10 05:03:20;;;;;;;21.92;13.52;;;;;;;;;;5068738;28;20274;-75
2021/10/10 05:05:48;;;;;;;28.85;13.88;;;;;;;;;;5060047;28;20571;-75
2021/10/10 05:08:30;;;;;;;27.45;13.35;;;;;;;;;;5047590;28;20210;-75
2021/10/10 05:11:04;;;;;;;31.00;14.83;;;;;;;;;;5054332;28;20192;-76
2021/10/10 05:13:32;;;;;;;26.48;14.23;;;;;;;;;;5054031;28;20448;-78
2021/10/10 05:15:58;;;;;;;29.10;14.90;;;;;;;;;;5054007;28;20229;-77
2021/10/10 05:18:25;;;;;;;32.55;14.82;;;;;;;;;;5052553;28;20175;-77
2021/10/10 05:20:54;;;;;;;24.42;13.02;;;;;;;;;;5038502;28;20669;-77
2021/10/10 05:23:21;;;;;;;21.83;13.40;;;;;;;;;;5034048;28;20160;-77
2021/10/10 05:25:47;;;;;;;26.50;13.63;;;;;;;;;;5034310;28;20396;-76
2021/10/10 05:28:16;;;;;;;30.30;14.25;;;;;;;;;;5033750;28;20528;-77
2021/10/10 05:30:54;;;;;;;23.30;13.00;;;;;;;;;;5038129;28;20188;-77
2021/10/10 05:33:30;;;;;;;42.30;14.48;;;;;;;;;;5036079;28;20667;-77
2021/10/10 05:36:00;;;;;;;24.48;13.13;;;;;;;;;;5034366;28;20191;-77
2021/10/10 05:38:59;;;;;;;26.50;13.80;;;4.30;1.00;;;;;;5034628;28;20160;-77
2021/10/10 05:41:30;;;;;;;32.15;12.95;;;;;;;;;;5034719;28;20177;-77
2021/10/10 05:43:56;;;;;;;30.30;14.55;;;;;;;;;;5034368;28;20261;-77
2021/10/10 05:46:27;;;;;;;23.50;13.32;;;4.30;1.00;;;;;;5034433;28;20159;-77
2021/10/10 05:48:54;;;;;;;27.88;13.35;;;;;;;;;;5034484;28;20573;-77
2021/10/10 05:51:24;;;;;;;29.85;16.00;;;;;;;;;;5034350;28;20196;-77
2021/10/10 05:54:00;;;;;;;22.77;13.68;;;;;;;;;;5032861;28;20168;-77
2021/10/10 05:56:26;;;;;;;35.13;14.48;;;;;;;;;;5034194;28;20550;-76
2021/10/10 05:59:01;;;;;;;24.67;13.20;;;;;;;;;;5034193;28;20206;-77
2021/10/10 06:01:30;;;;;;;25.05;13.55;;;;;;;;;;5033264;28;20182;-77
2021/10/10 06:03:56;;;;;;;27.27;14.15;;;;;;;;;;5033870;28;20163;-77
2021/10/10 06:06:22;;;;;;;27.67;13.90;;;;;;;;;;5050175;28;20167;-76
2021/10/10 06:08:54;;;;;;;28.10;13.25;;;;;;;;;;5053934;28;20383;-76
2021/10/10 06:11:24;;;;;;;22.45;13.32;;;;;;;;;;5048392;28;20199;-75
2021/10/10 06:13:54;;;;;;;22.27;12.57;;;;;;;;;;5053960;28;20152;-76
2021/10/10 06:16:24;;;;;;;24.98;13.73;;;;;;;;;;5053518;28;20225;-75
2021/10/10 06:18:50;;;;;;;28.27;13.65;;;;;;;;;;5053053;28;20175;-75
2021/10/10 06:21:18;;;;;;;28.95;13.50;;;;;;;;;;5051860;28;20235;-75
2021/10/10 06:23:44;;;;;;;29.03;14.00;;;;;;;;;;5052877;28;20225;-75
2021/10/10 06:26:10;;;;;;;29.73;13.77;;;;;;;;;;5053170;28;20862;-76
2021/10/10 06:28:48;;;;;;;24.40;13.30;;;;;;;;;;5043210;28;20834;-76
2021/10/10 06:31:14;;;;;;;25.13;12.77;;;;;;;;;;5039501;28;20803;-76
2021/10/10 06:33:42;;;;;;;26.13;13.93;;;;;;;;;;5047910;28;20627;-77
2021/10/10 06:36:08;;;;;;;26.30;14.00;;;4.60;1.00;;;;;;5033715;28;20392;-76
2021/10/10 06:39:05;;;;;;;26.67;13.97;;;4.60;1.00;;;;;;5033788;28;20187;-77
2021/10/10 06:41:31;;;;;;;24.80;13.67;;;;;;;;;;5044369;28;20255;-75
2021/10/10 06:43:58;;;;;;;22.37;12.00;;;;;;;;;;5057419;28;20410;-75
2021/10/10 06:46:25;;;;;;;26.25;12.63;;;;;;;;;;5055240;28;20488;-75
2021/10/10 06:49:06;;;;;;;24.00;13.10;;;;;;;;;;5047299;28;20589;-75
2021/10/10 06:51:32;;;;;;;28.97;12.70;;;;;;;;;;5045651;28;20192;-75
2021/10/10 06:53:58;;;;;;;24.27;13.37;;;;;;;;;;5037491;28;20410;-75
2021/10/10 06:56:36;;;;;;;24.77;11.97;;;;;;;;;;5038034;28;20419;-76
2021/10/10 06:59:12;;;;;;;21.30;11.97;;;;;;;;;;5037506;28;20540;-76
2021/10/10 07:01:39;;;;;;;26.83;12.88;;;;;;;;;;5048221;28;20412;-76
2021/10/10 07:04:06;;;;;;;21.20;12.87;;;;;;;;;;5055912;28;20160;-77
2021/10/10 07:06:42;;;;;;;22.63;12.40;;;5.30;1.00;;;;;;5056821;28;20387;-76
2021/10/10 07:09:11;;;;;;;22.77;12.57;;;;;;;;;;5057017;28;20413;-77
2021/10/10 07:11:37;;;;;;;25.37;13.47;;;;;;;;;;5054819;28;20453;-75
2021/10/10 07:14:12;;;;;;;34.50;14.73;;;;;;;;;;5055635;28;20406;-75
2021/10/10 07:16:42;;;;;;;24.60;13.40;;;;;;;;;;5057131;28;20425;-76
2021/10/10 07:19:08;;;;;;;30.87;13.77;;;;;;;;;;5049909;28;20460;-77
2021/10/10 07:21:58;;;;;;;33.83;13.50;;;6.10;1.00;;;;;;5046807;28;20410;-80
2021/10/10 07:27:20;;;;;;;26.63;13.60;;;;;;;;;;5014881;28;20563;-75
2021/10/10 07:29:48;;;;;;;29.17;14.47;;;;;;;;;;5009426;28;20431;-76
2021/10/10 07:32:15;;;;;;;28.40;15.83;;;;;;;;;;5013312;28;20476;-79
2021/10/10 07:34:41;;;;;;;32.00;14.70;;;;;;;;;;5013465;28;20391;-75
2021/10/10 07:37:07;;;;;;;44.70;15.30;;;6.80;1.00;;;;;;5013145;28;20420;-81
2021/10/10 07:39:33;;;;;;;18.77;9.47;;;;;;;;;;5013514;28;20507;-80
2021/10/10 07:41:59;;;;;;;17.63;8.83;;;;;;;;;;5013328;28;20169;-79
2021/10/10 07:44:29;;;;;;;17.27;9.13;;;;;;;;;;5013427;28;20743;-80
2021/10/10 07:47:15;;;;;;;26.57;9.97;;;;;;;;;;5013397;28;20475;-80
2021/10/10 07:49:42;;;;;;;19.63;9.20;;;;;;;;;;5012958;28;20853;-79
2021/10/10 07:52:08;;;;;;;18.27;8.83;;;;;;;;;;5013056;28;20420;-76
2021/10/10 07:54:34;;;;;;;25.47;8.60;;;;;;;;;;5014632;28;20400;-76
2021/10/10 07:57:18;;;;;;;17.23;8.57;;;;;;;;;;4998208;28;20452;-76
2021/10/10 07:59:48;;;;;;;14.20;8.03;;;;;;;;;;5013682;28;20424;-77
2021/10/10 08:02:56;;;;;;;14.83;8.70;;;7.90;1.00;;;;;;5013404;28;20825;-77
2021/10/10 08:05:41;;;;;;;20.10;7.70;;;8.10;1.00;;;;;;5052874;28;20913;-78
2021/10/10 08:08:30;;;;;;;27.33;9.73;;;8.10;1.00;;;;;;5055781;28;20382;-77
2021/10/10 08:10:56;;;;;;;22.70;8.00;;;;;;;;;;5049177;28;20542;-77
2021/10/10 08:13:22;;;;;;;15.30;8.40;;;;;;;;;;5046392;28;20840;-76
2021/10/10 08:15:48;;;;;;;19.27;8.87;;;;;;;;;;5054911;28;20414;-78
2021/10/10 08:18:14;;;;;;;15.90;8.40;;;;;;;;;;5054666;28;20878;-74
2021/10/10 08:20:40;;;;;;;13.53;7.37;;;;;;;;;;5047584;28;20414;-78
2021/10/10 08:23:08;;;;;;;12.63;7.17;;;;;;;;;;5034673;28;20395;-77
2021/10/10 08:25:35;;;;;;;25.50;9.37;;;;;;;;;;5033520;28;20411;-79
2021/10/10 08:28:06;;;;;;;18.60;7.40;;;;;;;;;;5044822;28;20460;-78
2021/10/10 08:30:32;;;;;;;12.67;6.97;;;;;;;;;;5038562;28;20457;-79
2021/10/10 08:32:58;;;;;;;15.50;7.70;;;;;;;;;;5034380;28;20452;-79
2021/10/10 08:35:24;;;;;;;9.23;5.80;;;;;;;;;;5034535;28;20750;-78
2021/10/10 08:37:50;;;;;;;13.93;6.10;;;;;;;;;;5054030;28;20434;-79
2021/10/10 08:40:17;;;;;;;12.47;6.57;;;;;;;;;;5049738;28;20407;-79
2021/10/10 08:42:52;;;;;;;14.20;6.53;;;9.50;1.00;;;;;;5034376;28;20436;-80
2021/10/10 08:45:22;;;;;;;14.30;7.20;;;9.60;1.00;;;;;;5034470;28;20395;-77
2021/10/10 08:47:51;;;;;;;16.67;8.00;;;9.60;1.00;;;;;;5037239;28;20488;-78
2021/10/10 08:50:26;;;;;;;14.73;7.27;;;9.70;1.00;;;;;;5053490;28;20804;-79
2021/10/10 08:52:56;;;;;;;12.73;6.87;;;9.80;1.00;;;;;;5054027;28;20404;-77
2021/10/10 08:55:22;;;;;;;12.90;6.70;;;;;;;;;;5051161;28;20776;-77
2021/10/10 08:57:49;;;;;;;14.20;7.13;;;;;;;;;;5035130;28;20553;-77
2021/10/10 09:00:21;;;;;;;9.40;6.10;;;10.10;1.00;;;;;;5053915;28;20890;-77
2021/10/10 09:02:48;;;;;;;15.67;7.33;;;;;;;;;;5038897;28;20419;-77
2021/10/10 09:05:15;;;;;;;14.53;6.50;;;10.20;1.00;;;;;;5033800;28;20404;-79
2021/10/10 09:07:41;;;;;;;12.73;6.67;;;;;;;;;;5034331;28;20422;-78
2021/10/10 09:10:27;;;;;;;12.60;6.13;;;10.40;1.00;;;;;;5033840;28;20454;-78
2021/10/10 09:13:05;;;;;;;17.70;7.30;;;10.50;1.00;;;;;;5046679;28;20418;-77
2021/10/10 09:15:31;;;;;;;13.10;6.10;;;;;;;;;;5053816;28;20454;-77
2021/10/10 09:18:02;;;;;;;12.60;6.10;;;10.70;1.00;;;;;;5053565;28;20476;-77
2021/10/10 09:20:41;;;;;;;18.83;7.50;;;10.90;1.00;;;;;;5053413;28;20430;-77
2021/10/10 09:23:31;;;;;;;19.73;6.70;;;11.00;1.00;;;;;;5051827;28;20413;-78
2021/10/10 09:26:04;;;;;;;11.87;6.17;;;10.90;1.00;;;;;;5052106;28;20501;-77
2021/10/10 09:28:33;;;;;;;14.83;7.07;;;11.00;1.00;;;;;;5053838;28;20474;-77
2021/10/10 09:31:03;;;;;;;8.90;6.30;;;11.20;1.00;;;;;;5033429;28;20837;-77
2021/10/10 09:33:35;;;;;;;17.87;7.07;;;11.20;1.00;;;;;;5039784;28;20801;-77
2021/10/10 09:36:03;;;;;;;22.53;6.50;;;11.30;1.00;;;;;;5053033;28;20393;-77
2021/10/10 09:38:29;;;;;;;9.40;5.80;;;;;;;;;;5051723;28;20441;-77
2021/10/10 09:41:25;;;;;;;10.27;6.77;;;11.20;1.00;;;;;;5053203;28;20395;-77
2021/10/10 09:44:18;;;;;;;14.40;6.27;;;11.40;1.00;;;;;;5047459;28;20434;-77
2021/10/10 09:46:46;;;;;;;60.80;11.67;;;;;;;;;;5040006;28;21058;-77
2021/10/10 09:49:41;;;;;;;20.67;6.80;;;11.60;1.00;;;;;;5042991;28;20453;-77
2021/10/10 09:52:14;;;;;;;12.50;6.23;;;11.70;1.00;;;;;;5011712;28;20569;-77
2021/10/10 09:54:55;;;;;;;14.17;6.80;;;11.90;1.00;;;;;;5038793;28;20414;-77
2021/10/10 09:57:27;;;;;;;7.70;5.33;;;11.90;1.00;;;;;;5051705;28;20410;-77
2021/10/10 09:59:55;;;;;;;14.63;6.10;;;12.00;1.00;;;;;;5048841;28;20909;-79
2021/10/10 10:02:48;;;;;;;11.70;6.03;;;12.00;1.00;;;;;;5014837;28;20517;-78
2021/10/10 10:05:26;;;;;;;11.40;5.67;;;12.00;1.00;;;;;;5012285;28;20423;-77
2021/10/10 10:07:56;;;;;;;15.80;6.10;;;12.00;1.00;;;;;;5030602;28;20411;-77
2021/10/10 10:10:25;;;;;;;13.50;7.03;;;12.10;1.00;;;;;;5030465;28;20459;-77
2021/10/10 10:12:52;;;;;;;19.73;7.13;;;12.20;1.00;;;;;;5032156;28;20403;-78
2021/10/10 10:15:31;;;;;;;13.60;6.77;;;12.30;1.00;;;;;;5012630;28;20525;-77
2021/10/10 10:17:58;;;;;;;11.03;6.20;;;;;;;;;;5014920;28;20449;-78
2021/10/10 10:20:27;;;;;;;11.10;6.10;;;12.60;1.00;;;;;;5014961;28;20911;-78
2021/10/10 10:22:54;;;;;;;11.23;6.50;;;;;;;;;;5014929;28;20889;-78
2021/10/10 10:25:22;;;;;;;10.23;6.30;;;12.80;1.00;;;;;;5014903;28;20396;-78
2021/10/10 10:27:49;;;;;;;12.20;6.50;;;;;;;;;;5020349;28;20414;-78
2021/10/10 10:30:20;;;;;;;19.77;6.80;;;13.00;1.00;;;;;;5045612;28;20457;-77
2021/10/10 10:32:51;;;;;;;10.10;5.77;;;13.10;1.00;;;;;;5035424;28;20922;-78
2021/10/10 10:35:20;;;;;;;11.83;6.10;;;13.20;1.00;;;;;;5036555;28;20443;-78
2021/10/10 10:37:53;;;;;;;15.60;6.23;;;13.20;1.00;;;;;;5035156;28;20948;-78
2021/10/10 10:40:25;;;;;;;14.20;6.30;;;13.30;1.00;;;;;;5036518;28;20373;-78
2021/10/10 10:42:53;;;;;;;11.63;6.50;;;13.30;1.00;;;;;;5036159;28;20882;-78
2021/10/10 10:45:32;;;;;;;13.97;6.90;;;13.50;1.00;;;;;;5036621;28;20373;-78
2021/10/10 10:48:01;;;;;;;13.53;6.97;;;13.60;1.00;;;;;;5046202;28;20466;-78
2021/10/10 10:50:54;;;;;;;8.10;5.43;;;13.60;1.00;;;;;;5046998;28;20470;-76
2021/10/10 10:53:24;;;;;;;15.10;6.23;;;13.70;1.00;;;;;;5055986;28;20422;-76
2021/10/10 10:55:55;;;;;;;12.57;6.37;;;13.60;1.00;;;;;;5054851;28;20414;-76
2021/10/10 10:58:21;;;;;;;13.10;6.47;;;;;;;;;;5056281;28;20403;-76
2021/10/10 11:00:49;;;;;;;12.87;6.13;;;13.80;1.00;;;;;;5045561;28;20374;-76
2021/10/10 11:03:16;;;;;;;14.80;7.23;;;;;;;;;;5036191;28;20401;-76
2021/10/10 11:06:11;;;;;;;14.77;6.70;;;14.00;1.00;;;;;;5036106;28;20788;-76
2021/10/10 11:08:39;;;;;;;17.63;7.40;;;;;;;;;;4978013;28;20833;-76
2021/10/10 11:11:13;;;;;;;14.30;7.10;;;;;;;;;;4994358;28;20985;-77
2021/10/10 11:13:46;;;;;;;9.97;5.83;;;14.30;1.00;;;;;;4994152;28;20452;-76
2021/10/10 11:16:13;;;;;;;10.63;6.17;;;;;;;;;;4994182;28;20969;-77
2021/10/10 11:19:10;;;;;;;17.60;7.40;;;;;;;;;;4994094;28;20678;-77
2021/10/10 11:21:44;;;;;;;19.93;6.90;;;;;;;;;;4997967;28;20432;-77
2021/10/10 11:24:19;;;;;;;9.10;5.87;;;;;;;;;;4984637;28;20386;-76
2021/10/10 11:26:45;;;;;;;18.23;7.03;;;;;;;;;;5013453;28;20431;-76
2021/10/10 11:29:15;;;;;;;23.80;7.30;;;15.00;1.00;;;;;;5017870;28;20395;-78
2021/10/10 11:31:42;;;;;;;13.97;6.63;;;;;;;;;;5006272;28;20463;-79
2021/10/10 11:34:13;;;;;;;19.43;7.00;;;;;;;;;;5007602;28;20526;-78
2021/10/10 11:36:49;;;;;;;20.63;7.37;;;;;;;;;;5002937;28;20415;-80
2021/10/10 11:39:44;;;;;;;13.60;6.40;;;15.30;1.00;;;;;;4993562;28;20866;-79
2021/10/10 11:42:12;;;;;;;19.17;6.23;;;;;;;;;;4999112;28;20413;-80
2021/10/10 11:44:45;;;;;;;26.03;7.90;;;15.30;1.00;;;;;;5004582;28;20520;-78
2021/10/10 11:47:25;;;;;;;16.83;6.70;;;15.30;1.00;;;;;;5053851;28;20476;-80
2021/10/10 11:49:57;;;;;;;11.10;5.90;;;15.30;1.00;;;;;;5047147;28;20424;-79
2021/10/10 11:57:55;;;;;;;12.50;6.33;;;15.60;1.00;;;;;;5051013;28;20433;-78
2021/10/10 12:00:36;;;;;;;12.90;6.37;;;15.60;1.00;;;;;;5055123;28;20473;-76
2021/10/10 12:03:10;;;;;;;11.90;5.73;;;;;;;;;;5062149;28;20420;-76
2021/10/10 12:05:40;;;;;;;10.23;5.40;;;;;;;;;;5036974;28;20439;-76
2021/10/10 12:08:23;;;;;;;15.23;6.47;;;15.60;1.00;;;;;;5035733;28;20388;-76
2021/10/10 12:10:50;;;;;;;12.57;6.10;;;15.70;1.00;;;;;;5050197;28;20511;-76
2021/10/10 12:13:30;;;;;;;10.17;6.10;;;;;;;;;;5039781;28;20422;-76
2021/10/10 12:16:04;;;;;;;13.80;6.43;;;15.80;1.00;;;;;;5051164;28;20446;-77
2021/10/10 12:18:36;;;;;;;12.30;6.93;;;;;;;;;;5055537;28;20865;-77
2021/10/10 12:21:25;;;;;;;10.50;6.20;;;;;;;;;;5053438;28;20451;-77
2021/10/10 12:24:18;;;;;;;11.93;6.60;;;16.20;1.00;;;;;;5035150;28;20409;-77
2021/10/10 12:27:01;;;;;;;15.73;7.07;;;;;;;;;;5035795;28;20893;-77
2021/10/10 12:29:30;;;;;;;17.53;7.07;;;16.40;1.00;;;;;;5055347;28;20370;-77
2021/10/10 12:32:17;;;;;;;11.30;6.20;;;16.50;1.00;;;;;;5040574;28;20429;-77
2021/10/10 12:34:44;;;;;;;14.20;6.90;;;;;;;;;;5057460;28;20414;-76
2021/10/10 12:37:21;;;;;;;11.70;6.50;;;16.60;1.00;;;;;;5051782;28;20905;-77
2021/10/10 12:39:49;;;;;;;16.03;6.60;;;;;;;;;;5053146;28;20555;-77
2021/10/10 12:42:21;;;;;;;12.53;6.60;;;;;;;;;;5043286;28;20437;-77
2021/10/10 12:45:10;;;;;;;10.53;6.10;;;16.60;1.00;;;;;;5040030;28;20397;-77
2021/10/10 12:47:36;;;;;;;30.63;8.27;;;;;;;;;;5045608;28;20406;-80
2021/10/10 12:50:09;;;;;;;14.30;6.73;;;;;;;;;;5046781;28;20437;-76
2021/10/10 12:52:43;;;;;;;64.50;11.23;;;;;;;;;;5037970;28;21146;-76
2021/10/10 12:55:20;;;;;;;31.17;8.03;;;;;;;;;;5049434;28;20447;-76
2021/10/10 12:57:53;;;;;;;17.73;6.70;;;;;;;;;;5034936;28;20425;-78
2021/10/10 13:00:20;;;;;;;12.40;6.27;;;;;;;;;;5045593;28;20438;-78
2021/10/10 13:02:48;;;;;;;11.67;6.40;;;;;;;;;;5049271;28;20421;-79
2021/10/10 13:05:18;;;;;;;32.07;6.73;;;16.80;1.00;;;;;;5046546;28;20434;-78
2021/10/10 13:07:45;;;;;;;16.13;6.50;;;16.90;1.00;;;;;;5041651;28;20445;-77
2021/10/10 13:10:12;;;;;;;27.53;7.80;;;;;;;;;;5052520;28;20433;-83
2021/10/10 13:12:54;;;;;;;15.70;6.37;;;;;;;;;;5048372;28;20436;-82
2021/10/10 13:15:20;;;;;;;12.30;5.93;;;;;;;;;;5055773;28;20459;-81
2021/10/10 13:17:54;;;;;;;15.53;6.60;;;;;;;;;;5046753;28;20436;-81
2021/10/10 13:20:47;;;;;;;10.60;6.00;;;17.00;1.00;;;;;;5041816;28;20402;-80
2021/10/10 13:23:18;;;;;;;12.07;5.27;;;;;;;;;;5047367;28;20484;-81
2021/10/10 13:25:54;;;;;;;15.90;6.97;;;17.00;1.00;;;;;;5047043;28;20503;-82
2021/10/10 13:28:20;;;;;;;16.70;5.93;;;17.30;1.00;;;;;;5040569;28;20430;-78
2021/10/10 13:31:00;;;;;;;10.20;5.63;;;17.50;1.00;;;;;;5040703;28;20603;-77
2021/10/10 13:33:33;;;;;;;17.53;6.10;;;17.50;1.00;;;;;;5057366;28;20184;-76
2021/10/10 13:36:12;;;;;;;10.60;5.70;;;17.50;1.00;;;;;;5040596;28;20395;-80
2021/10/10 13:38:48;;;;;;;10.63;5.90;;;;;;;;;;5045038;28;20438;-78
2021/10/10 13:41:21;;;;;;;12.10;5.60;;;;;;;;;;5037065;28;20408;-77
2021/10/10 13:44:00;;;;;;;9.83;5.00;;;;;;;;;;5060276;28;20424;-76
2021/10/10 13:46:30;;;;;;;10.57;5.50;;;;;;;;;;5050369;28;20485;-78
2021/10/10 13:49:43;;;;;;;9.37;5.07;;;18.00;1.00;;;;;;5045793;28;20414;-77
2021/10/10 13:52:12;;;;;;;10.87;6.07;;;;;;;;;;5056400;28;20514;-77
2021/10/10 13:54:40;;;;;;;9.43;5.27;;;;;;;;;;5049252;28;20441;-77
2021/10/10 13:57:13;;;;;;;12.70;5.70;;;18.00;1.00;;;;;;5053451;28;20432;-79
2021/10/10 13:59:39;;;;;;;16.40;5.80;;;;;;;;;;5047385;28;20495;-76
2021/10/10 14:02:06;;;;;;;9.97;5.40;;;;;;;;;;5053653;28;20417;-76
2021/10/10 14:04:39;;;;;;;15.67;5.73;;;18.00;1.00;;;;;;5040658;28;20398;-78
2021/10/10 14:07:05;;;;;;;10.80;5.60;;;;;;;;;;5045142;28;20416;-75
2021/10/10 14:09:31;;;;;;;9.23;5.70;;;;;;;;;;5047477;28;20784;-77
2021/10/10 14:11:57;;;;;;;10.03;5.40;;;18.10;1.00;;;;;;5056025;28;20434;-75
2021/10/10 14:14:26;;;;;;;14.57;5.90;;;18.00;1.00;;;;;;5050646;28;20410;-75
2021/10/10 14:17:06;;;;;;;16.23;5.63;;;18.00;1.00;;;;;;5046158;28;20281;-77
2021/10/10 14:19:42;;;;;;;7.67;4.90;;;18.20;1.00;;;;;;5057709;28;20849;-77
2021/10/10 14:22:08;;;;;;;11.53;6.30;;;18.20;1.00;;;;;;5052175;28;20436;-76
2021/10/10 14:24:34;;;;;;;14.33;5.23;;;;;;;;;;5050519;28;20779;-76